EGPF/GLA METAR and TAF weather

Enter ICAO airport designator
Station Type Date Time Source
EGPF METAR 2019/12/05 22:50 UTC NOAA

EGPF 052250Z AUTO 24019KT 8000 BKN012 OVC018 11/10 Q0997


Station Type Date Time Source
EGPF Decoded METAR 2019/12/05 22:50 UTC NOAA

Glasgow Airport, United Kingdom (EGPF) 55-52N 004-26W 0M
Dec 05, 2019 - 05:50 PM EST / 2019.12.05 2250 UTC
Wind: from the WSW (240 degrees) at 22 MPH (19 KT):0
Visibility: 4 mile(s):0
Sky conditions: overcast
Temperature: 51 F (11 C)
Dew Point: 50 F (10 C)
Relative Humidity: 93%
Pressure (altimeter): 29.44 in. Hg (0997 hPa)
ob: EGPF 052250Z AUTO 24019KT 8000 BKN012 OVC018 11/10 Q0997
cycle: 23

Station Type Date Time Source
EGPF TAF 2019/12/05 18:06 UTC NOAA

TAF EGPF 051655Z 0518/0618 22022G35KT 9999 SCT020
TEMPO 0518/0606 6000 RA BKN008 PROB40
TEMPO 0518/0604 2000 DZRA +RA BKN004
BECMG 0521/0524 25012KT PROB30
TEMPO 0600/0612 26015G25KT PROB30
TEMPO 0609/0618 7000 SHRA BKN012

Example: see airport list